sensor_id;sensor_type;location;lat;lon;timestamp;P1;durP1;ratioP1;P2;durP2;ratioP2
20629;SDS011;17386;43.846;25.950;2023-05-10T00:01:28;11.57;;;7.20;;
20629;SDS011;17386;43.846;25.950;2023-05-10T00:03:53;13.40;;;7.20;;
20629;SDS011;17386;43.846;25.950;2023-05-10T00:06:18;12.43;;;7.05;;
20629;SDS011;17386;43.846;25.950;2023-05-10T00:08:44;15.20;;;7.78;;
20629;SDS011;17386;43.846;25.950;2023-05-10T00:11:10;13.63;;;7.68;;
20629;SDS011;17386;43.846;25.950;2023-05-10T00:13:35;14.93;;;8.00;;
20629;SDS011;17386;43.846;25.950;2023-05-10T00:16:01;15.48;;;8.00;;
20629;SDS011;17386;43.846;25.950;2023-05-10T00:18:26;14.10;;;8.05;;
20629;SDS011;17386;43.846;25.950;2023-05-10T00:20:52;14.27;;;8.23;;
20629;SDS011;17386;43.846;25.950;2023-05-10T00:23:17;15.20;;;8.02;;
20629;SDS011;17386;43.846;25.950;2023-05-10T00:25:42;17.08;;;8.27;;
20629;SDS011;17386;43.846;25.950;2023-05-10T00:28:08;15.60;;;8.25;;
20629;SDS011;17386;43.846;25.950;2023-05-10T00:30:33;17.10;;;8.63;;
20629;SDS011;17386;43.846;25.950;2023-05-10T00:32:59;13.63;;;6.95;;
20629;SDS011;17386;43.846;25.950;2023-05-10T00:35:24;14.38;;;7.30;;
20629;SDS011;17386;43.846;25.950;2023-05-10T00:37:49;12.80;;;7.93;;
20629;SDS011;17386;43.846;25.950;2023-05-10T00:40:15;10.95;;;6.97;;
20629;SDS011;17386;43.846;25.950;2023-05-10T00:42:40;13.57;;;7.63;;
20629;SDS011;17386;43.846;25.950;2023-05-10T00:45:06;17.83;;;8.32;;
20629;SDS011;17386;43.846;25.950;2023-05-10T00:47:32;14.10;;;7.00;;
20629;SDS011;17386;43.846;25.950;2023-05-10T00:49:58;12.50;;;6.85;;
20629;SDS011;17386;43.846;25.950;2023-05-10T00:52:25;13.10;;;7.22;;
20629;SDS011;17386;43.846;25.950;2023-05-10T00:54:52;17.10;;;8.20;;
20629;SDS011;17386;43.846;25.950;2023-05-10T00:57:17;17.17;;;8.32;;
20629;SDS011;17386;43.846;25.950;2023-05-10T00:59:43;19.35;;;8.38;;
20629;SDS011;17386;43.846;25.950;2023-05-10T01:02:08;15.70;;;7.90;;
20629;SDS011;17386;43.846;25.950;2023-05-10T01:04:34;15.63;;;8.80;;
20629;SDS011;17386;43.846;25.950;2023-05-10T01:07:00;13.80;;;8.00;;
20629;SDS011;17386;43.846;25.950;2023-05-10T01:09:26;17.13;;;8.68;;
20629;SDS011;17386;43.846;25.950;2023-05-10T01:11:52;17.20;;;7.93;;
20629;SDS011;17386;43.846;25.950;2023-05-10T01:14:19;15.05;;;7.38;;
20629;SDS011;17386;43.846;25.950;2023-05-10T01:16:45;15.10;;;7.68;;
20629;SDS011;17386;43.846;25.950;2023-05-10T01:19:22;14.50;;;7.80;;
20629;SDS011;17386;43.846;25.950;2023-05-10T01:27:17;16.27;;;7.70;;
20629;SDS011;17386;43.846;25.950;2023-05-10T01:30:08;17.55;;;8.18;;
20629;SDS011;17386;43.846;25.950;2023-05-10T01:32:59;18.05;;;9.75;;
20629;SDS011;17386;43.846;25.950;2023-05-10T01:40:30;17.70;;;8.65;;
20629;SDS011;17386;43.846;25.950;2023-05-10T01:43:02;15.27;;;8.90;;
20629;SDS011;17386;43.846;25.950;2023-05-10T01:45:32;17.33;;;7.43;;
20629;SDS011;17386;43.846;25.950;2023-05-10T01:48:06;16.95;;;8.27;;
20629;SDS011;17386;43.846;25.950;2023-05-10T01:50:35;14.02;;;7.72;;
20629;SDS011;17386;43.846;25.950;2023-05-10T01:55:32;13.77;;;7.38;;
20629;SDS011;17386;43.846;25.950;2023-05-10T01:58:06;13.48;;;7.35;;
20629;SDS011;17386;43.846;25.950;2023-05-10T02:00:34;15.82;;;7.38;;
20629;SDS011;17386;43.846;25.950;2023-05-10T02:03:01;15.88;;;7.50;;
20629;SDS011;17386;43.846;25.950;2023-05-10T02:05:30;13.00;;;7.38;;
20629;SDS011;17386;43.846;25.950;2023-05-10T02:07:58;14.88;;;8.52;;
20629;SDS011;17386;43.846;25.950;2023-05-10T02:12:52;13.25;;;7.25;;
20629;SDS011;17386;43.846;25.950;2023-05-10T02:15:20;16.08;;;8.00;;
20629;SDS011;17386;43.846;25.950;2023-05-10T02:17:48;14.43;;;8.07;;
20629;SDS011;17386;43.846;25.950;2023-05-10T02:20:14;14.93;;;7.82;;
20629;SDS011;17386;43.846;25.950;2023-05-10T02:22:41;14.98;;;8.02;;
20629;SDS011;17386;43.846;25.950;2023-05-10T02:25:08;12.50;;;7.18;;
20629;SDS011;17386;43.846;25.950;2023-05-10T02:27:34;14.35;;;7.65;;
20629;SDS011;17386;43.846;25.950;2023-05-10T02:30:01;13.80;;;7.25;;
20629;SDS011;17386;43.846;25.950;2023-05-10T02:32:27;12.73;;;7.43;;
20629;SDS011;17386;43.846;25.950;2023-05-10T02:34:54;13.95;;;7.75;;
20629;SDS011;17386;43.846;25.950;2023-05-10T02:37:22;14.93;;;7.25;;
20629;SDS011;17386;43.846;25.950;2023-05-10T02:39:49;15.48;;;8.13;;
20629;SDS011;17386;43.846;25.950;2023-05-10T02:42:16;13.02;;;7.75;;
20629;SDS011;17386;43.846;25.950;2023-05-10T02:44:45;15.70;;;7.90;;
20629;SDS011;17386;43.846;25.950;2023-05-10T02:47:13;15.05;;;7.63;;
20629;SDS011;17386;43.846;25.950;2023-05-10T02:49:38;18.52;;;8.95;;
20629;SDS011;17386;43.846;25.950;2023-05-10T02:52:04;17.25;;;8.70;;
20629;SDS011;17386;43.846;25.950;2023-05-10T02:54:37;16.00;;;8.38;;
20629;SDS011;17386;43.846;25.950;2023-05-10T02:57:06;15.00;;;8.40;;
20629;SDS011;17386;43.846;25.950;2023-05-10T02:59:33;17.55;;;8.43;;
20629;SDS011;17386;43.846;25.950;2023-05-10T03:01:59;16.95;;;8.48;;
20629;SDS011;17386;43.846;25.950;2023-05-10T03:04:25;17.92;;;8.20;;
20629;SDS011;17386;43.846;25.950;2023-05-10T03:06:51;17.63;;;8.38;;
20629;SDS011;17386;43.846;25.950;2023-05-10T03:09:17;19.00;;;8.48;;
20629;SDS011;17386;43.846;25.950;2023-05-10T03:11:53;23.83;;;8.05;;
20629;SDS011;17386;43.846;25.950;2023-05-10T03:20:10;13.15;;;7.30;;
20629;SDS011;17386;43.846;25.950;2023-05-10T03:22:47;17.40;;;7.38;;
20629;SDS011;17386;43.846;25.950;2023-05-10T03:25:16;15.40;;;8.32;;
20629;SDS011;17386;43.846;25.950;2023-05-10T03:27:45;13.88;;;7.32;;
20629;SDS011;17386;43.846;25.950;2023-05-10T03:30:12;14.15;;;7.55;;
20629;SDS011;17386;43.846;25.950;2023-05-10T03:32:38;12.82;;;7.07;;
20629;SDS011;17386;43.846;25.950;2023-05-10T03:35:10;12.98;;;7.00;;
20629;SDS011;17386;43.846;25.950;2023-05-10T03:37:37;16.55;;;7.25;;
20629;SDS011;17386;43.846;25.950;2023-05-10T03:40:03;17.77;;;8.02;;
20629;SDS011;17386;43.846;25.950;2023-05-10T03:42:29;16.90;;;6.97;;
20629;SDS011;17386;43.846;25.950;2023-05-10T03:44:54;16.73;;;8.20;;
20629;SDS011;17386;43.846;25.950;2023-05-10T03:47:20;14.63;;;8.02;;
20629;SDS011;17386;43.846;25.950;2023-05-10T03:49:45;16.40;;;8.35;;
20629;SDS011;17386;43.846;25.950;2023-05-10T03:52:11;18.52;;;8.05;;
20629;SDS011;17386;43.846;25.950;2023-05-10T03:54:37;16.25;;;7.65;;
20629;SDS011;17386;43.846;25.950;2023-05-10T03:57:05;18.88;;;7.90;;
20629;SDS011;17386;43.846;25.950;2023-05-10T03:59:31;18.52;;;8.82;;
20629;SDS011;17386;43.846;25.950;2023-05-10T04:01:56;15.27;;;8.30;;
20629;SDS011;17386;43.846;25.950;2023-05-10T04:04:22;14.60;;;7.55;;
20629;SDS011;17386;43.846;25.950;2023-05-10T04:06:48;15.82;;;8.68;;
20629;SDS011;17386;43.846;25.950;2023-05-10T04:09:14;16.00;;;7.75;;
20629;SDS011;17386;43.846;25.950;2023-05-10T04:11:40;16.08;;;7.60;;
20629;SDS011;17386;43.846;25.950;2023-05-10T04:14:05;15.43;;;7.95;;
20629;SDS011;17386;43.846;25.950;2023-05-10T04:16:31;17.10;;;7.97;;
20629;SDS011;17386;43.846;25.950;2023-05-10T04:18:56;24.60;;;9.30;;
20629;SDS011;17386;43.846;25.950;2023-05-10T04:21:22;20.73;;;8.48;;
20629;SDS011;17386;43.846;25.950;2023-05-10T04:23:47;17.60;;;7.82;;
20629;SDS011;17386;43.846;25.950;2023-05-10T04:26:13;20.88;;;8.57;;
20629;SDS011;17386;43.846;25.950;2023-05-10T04:28:38;18.20;;;8.57;;
20629;SDS011;17386;43.846;25.950;2023-05-10T04:31:07;16.88;;;8.25;;
20629;SDS011;17386;43.846;25.950;2023-05-10T04:33:34;22.38;;;8.77;;
20629;SDS011;17386;43.846;25.950;2023-05-10T04:36:01;19.92;;;9.10;;
20629;SDS011;17386;43.846;25.950;2023-05-10T04:38:27;19.13;;;9.02;;
20629;SDS011;17386;43.846;25.950;2023-05-10T04:40:53;17.83;;;9.65;;
20629;SDS011;17386;43.846;25.950;2023-05-10T04:43:18;21.73;;;8.90;;
20629;SDS011;17386;43.846;25.950;2023-05-10T04:45:44;18.08;;;8.18;;
20629;SDS011;17386;43.846;25.950;2023-05-10T04:48:09;20.58;;;9.15;;
20629;SDS011;17386;43.846;25.950;2023-05-10T04:50:35;19.73;;;9.27;;
20629;SDS011;17386;43.846;25.950;2023-05-10T04:53:00;24.20;;;10.07;;
20629;SDS011;17386;43.846;25.950;2023-05-10T04:55:25;23.23;;;9.77;;
20629;SDS011;17386;43.846;25.950;2023-05-10T04:57:51;25.02;;;9.77;;
20629;SDS011;17386;43.846;25.950;2023-05-10T05:00:17;22.92;;;8.95;;
20629;SDS011;17386;43.846;25.950;2023-05-10T05:02:44;20.85;;;9.30;;
20629;SDS011;17386;43.846;25.950;2023-05-10T05:05:13;19.20;;;9.25;;
20629;SDS011;17386;43.846;25.950;2023-05-10T05:07:38;24.90;;;9.30;;
20629;SDS011;17386;43.846;25.950;2023-05-10T05:10:07;24.58;;;9.52;;
20629;SDS011;17386;43.846;25.950;2023-05-10T05:12:33;24.88;;;10.55;;
20629;SDS011;17386;43.846;25.950;2023-05-10T05:14:59;30.25;;;14.40;;
20629;SDS011;17386;43.846;25.950;2023-05-10T05:17:25;26.45;;;11.63;;
20629;SDS011;17386;43.846;25.950;2023-05-10T05:19:50;33.40;;;14.75;;
20629;SDS011;17386;43.846;25.950;2023-05-10T05:22:16;28.30;;;13.05;;
20629;SDS011;17386;43.846;25.950;2023-05-10T05:24:51;27.33;;;13.80;;
20629;SDS011;17386;43.846;25.950;2023-05-10T05:27:17;28.10;;;13.10;;
20629;SDS011;17386;43.846;25.950;2023-05-10T05:29:42;28.65;;;12.63;;
20629;SDS011;17386;43.846;25.950;2023-05-10T05:32:07;27.17;;;12.63;;
20629;SDS011;17386;43.846;25.950;2023-05-10T05:34:33;30.23;;;12.45;;
20629;SDS011;17386;43.846;25.950;2023-05-10T05:36:59;31.90;;;12.98;;
20629;SDS011;17386;43.846;25.950;2023-05-10T05:39:24;28.95;;;10.73;;
20629;SDS011;17386;43.846;25.950;2023-05-10T05:41:50;35.45;;;12.35;;
20629;SDS011;17386;43.846;25.950;2023-05-10T05:44:15;22.98;;;11.20;;
20629;SDS011;17386;43.846;25.950;2023-05-10T05:46:40;26.25;;;11.65;;
20629;SDS011;17386;43.846;25.950;2023-05-10T05:49:06;20.02;;;10.38;;
20629;SDS011;17386;43.846;25.950;2023-05-10T05:51:31;25.35;;;11.82;;
20629;SDS011;17386;43.846;25.950;2023-05-10T05:53:57;25.13;;;12.68;;
20629;SDS011;17386;43.846;25.950;2023-05-10T05:56:22;25.00;;;12.20;;
20629;SDS011;17386;43.846;25.950;2023-05-10T05:58:52;33.90;;;18.80;;
20629;SDS011;17386;43.846;25.950;2023-05-10T06:01:17;27.52;;;12.32;;
20629;SDS011;17386;43.846;25.950;2023-05-10T06:03:43;30.83;;;13.27;;
20629;SDS011;17386;43.846;25.950;2023-05-10T06:06:08;28.13;;;12.25;;
20629;SDS011;17386;43.846;25.950;2023-05-10T06:08:33;21.85;;;10.30;;
20629;SDS011;17386;43.846;25.950;2023-05-10T06:10:59;24.15;;;12.75;;
20629;SDS011;17386;43.846;25.950;2023-05-10T06:13:25;24.45;;;12.25;;
20629;SDS011;17386;43.846;25.950;2023-05-10T06:15:56;29.63;;;13.23;;
20629;SDS011;17386;43.846;25.950;2023-05-10T06:18:22;29.65;;;12.52;;
20629;SDS011;17386;43.846;25.950;2023-05-10T06:20:49;22.33;;;11.52;;
20629;SDS011;17386;43.846;25.950;2023-05-10T06:23:15;22.83;;;12.32;;
20629;SDS011;17386;43.846;25.950;2023-05-10T06:25:40;23.00;;;10.93;;
20629;SDS011;17386;43.846;25.950;2023-05-10T06:28:05;29.45;;;13.25;;
20629;SDS011;17386;43.846;25.950;2023-05-10T06:30:31;26.70;;;12.05;;
20629;SDS011;17386;43.846;25.950;2023-05-10T06:32:56;26.17;;;12.20;;
20629;SDS011;17386;43.846;25.950;2023-05-10T06:35:22;23.80;;;11.88;;
20629;SDS011;17386;43.846;25.950;2023-05-10T06:37:48;24.67;;;11.40;;
20629;SDS011;17386;43.846;25.950;2023-05-10T06:40:13;27.10;;;10.57;;
20629;SDS011;17386;43.846;25.950;2023-05-10T06:42:39;25.23;;;11.48;;
20629;SDS011;17386;43.846;25.950;2023-05-10T06:45:04;25.20;;;12.55;;
20629;SDS011;17386;43.846;25.950;2023-05-10T06:47:30;32.70;;;13.82;;
20629;SDS011;17386;43.846;25.950;2023-05-10T06:49:56;30.67;;;12.25;;
20629;SDS011;17386;43.846;25.950;2023-05-10T06:52:22;24.85;;;12.13;;
20629;SDS011;17386;43.846;25.950;2023-05-10T06:54:48;21.88;;;11.20;;
20629;SDS011;17386;43.846;25.950;2023-05-10T06:57:13;21.13;;;10.98;;
20629;SDS011;17386;43.846;25.950;2023-05-10T06:59:39;22.10;;;10.38;;
20629;SDS011;17386;43.846;25.950;2023-05-10T07:02:04;22.05;;;10.10;;
20629;SDS011;17386;43.846;25.950;2023-05-10T07:04:30;21.65;;;10.90;;
20629;SDS011;17386;43.846;25.950;2023-05-10T07:06:55;25.92;;;10.07;;
20629;SDS011;17386;43.846;25.950;2023-05-10T07:09:22;23.38;;;9.85;;
20629;SDS011;17386;43.846;25.950;2023-05-10T07:11:49;19.13;;;9.40;;
20629;SDS011;17386;43.846;25.950;2023-05-10T07:14:14;18.60;;;9.05;;
20629;SDS011;17386;43.846;25.950;2023-05-10T07:16:40;16.30;;;8.63;;
20629;SDS011;17386;43.846;25.950;2023-05-10T07:19:05;20.50;;;9.35;;
20629;SDS011;17386;43.846;25.950;2023-05-10T07:21:31;20.45;;;9.45;;
20629;SDS011;17386;43.846;25.950;2023-05-10T07:23:57;17.80;;;8.55;;
20629;SDS011;17386;43.846;25.950;2023-05-10T07:26:22;18.67;;;8.38;;
20629;SDS011;17386;43.846;25.950;2023-05-10T07:28:49;16.70;;;8.23;;
20629;SDS011;17386;43.846;25.950;2023-05-10T07:31:14;20.80;;;9.07;;
20629;SDS011;17386;43.846;25.950;2023-05-10T07:33:39;19.80;;;8.50;;
20629;SDS011;17386;43.846;25.950;2023-05-10T07:36:05;19.73;;;9.52;;
20629;SDS011;17386;43.846;25.950;2023-05-10T07:38:30;24.40;;;9.00;;
20629;SDS011;17386;43.846;25.950;2023-05-10T07:40:56;21.55;;;9.88;;
20629;SDS011;17386;43.846;25.950;2023-05-10T07:43:21;18.23;;;8.73;;
20629;SDS011;17386;43.846;25.950;2023-05-10T07:45:47;17.98;;;8.48;;
20629;SDS011;17386;43.846;25.950;2023-05-10T07:48:12;15.32;;;7.90;;
20629;SDS011;17386;43.846;25.950;2023-05-10T07:50:38;18.52;;;8.20;;
20629;SDS011;17386;43.846;25.950;2023-05-10T07:53:03;20.92;;;8.35;;
20629;SDS011;17386;43.846;25.950;2023-05-10T07:55:28;14.50;;;6.65;;
20629;SDS011;17386;43.846;25.950;2023-05-10T07:57:54;17.42;;;5.78;;
20629;SDS011;17386;43.846;25.950;2023-05-10T08:00:19;13.82;;;6.10;;
20629;SDS011;17386;43.846;25.950;2023-05-10T08:02:45;13.80;;;6.47;;
20629;SDS011;17386;43.846;25.950;2023-05-10T08:05:11;14.07;;;6.80;;
20629;SDS011;17386;43.846;25.950;2023-05-10T08:07:37;10.70;;;6.32;;
20629;SDS011;17386;43.846;25.950;2023-05-10T08:10:02;11.77;;;5.75;;
20629;SDS011;17386;43.846;25.950;2023-05-10T08:12:28;9.65;;;4.93;;
20629;SDS011;17386;43.846;25.950;2023-05-10T08:14:54;12.50;;;5.38;;
20629;SDS011;17386;43.846;25.950;2023-05-10T08:17:19;13.38;;;5.85;;
20629;SDS011;17386;43.846;25.950;2023-05-10T08:19:45;12.90;;;5.50;;
20629;SDS011;17386;43.846;25.950;2023-05-10T08:22:10;17.27;;;5.63;;
20629;SDS011;17386;43.846;25.950;2023-05-10T08:24:35;22.15;;;6.68;;
20629;SDS011;17386;43.846;25.950;2023-05-10T08:27:04;13.35;;;6.82;;
20629;SDS011;17386;43.846;25.950;2023-05-10T08:29:30;19.50;;;7.07;;
20629;SDS011;17386;43.846;25.950;2023-05-10T08:31:55;17.70;;;6.55;;
20629;SDS011;17386;43.846;25.950;2023-05-10T08:34:21;10.88;;;6.40;;
20629;SDS011;17386;43.846;25.950;2023-05-10T08:36:46;11.30;;;5.80;;
20629;SDS011;17386;43.846;25.950;2023-05-10T08:39:11;10.27;;;4.40;;
20629;SDS011;17386;43.846;25.950;2023-05-10T08:41:37;9.93;;;4.60;;
20629;SDS011;17386;43.846;25.950;2023-05-10T08:44:04;11.15;;;3.50;;
20629;SDS011;17386;43.846;25.950;2023-05-10T08:46:33;7.88;;;3.35;;
20629;SDS011;17386;43.846;25.950;2023-05-10T08:49:01;11.80;;;6.25;;
20629;SDS011;17386;43.846;25.950;2023-05-10T08:53:58;16.33;;;4.63;;
20629;SDS011;17386;43.846;25.950;2023-05-10T08:56:24;4.97;;;2.33;;
20629;SDS011;17386;43.846;25.950;2023-05-10T08:58:50;9.25;;;3.05;;
20629;SDS011;17386;43.846;25.950;2023-05-10T09:01:16;6.00;;;2.42;;
20629;SDS011;17386;43.846;25.950;2023-05-10T09:03:43;9.68;;;3.22;;
20629;SDS011;17386;43.846;25.950;2023-05-10T09:06:11;5.68;;;2.70;;
20629;SDS011;17386;43.846;25.950;2023-05-10T09:08:38;14.40;;;5.90;;
20629;SDS011;17386;43.846;25.950;2023-05-10T09:11:05;14.30;;;6.65;;
20629;SDS011;17386;43.846;25.950;2023-05-10T09:13:30;5.70;;;2.42;;
20629;SDS011;17386;43.846;25.950;2023-05-10T09:15:57;6.43;;;2.38;;
20629;SDS011;17386;43.846;25.950;2023-05-10T09:18:23;7.22;;;2.83;;
20629;SDS011;17386;43.846;25.950;2023-05-10T09:20:48;8.05;;;3.60;;
20629;SDS011;17386;43.846;25.950;2023-05-10T09:23:14;13.57;;;3.22;;
20629;SDS011;17386;43.846;25.950;2023-05-10T09:25:41;6.47;;;2.50;;
20629;SDS011;17386;43.846;25.950;2023-05-10T09:28:07;7.75;;;2.90;;
20629;SDS011;17386;43.846;25.950;2023-05-10T09:30:33;4.30;;;2.58;;
20629;SDS011;17386;43.846;25.950;2023-05-10T09:33:00;9.27;;;4.22;;
20629;SDS011;17386;43.846;25.950;2023-05-10T09:35:26;10.25;;;3.10;;
20629;SDS011;17386;43.846;25.950;2023-05-10T09:37:55;12.18;;;2.50;;
20629;SDS011;17386;43.846;25.950;2023-05-10T09:40:23;4.07;;;2.78;;
20629;SDS011;17386;43.846;25.950;2023-05-10T09:43:00;27.45;;;15.23;;
20629;SDS011;17386;43.846;25.950;2023-05-10T09:45:31;12.38;;;3.22;;
20629;SDS011;17386;43.846;25.950;2023-05-10T09:47:58;4.72;;;2.20;;
20629;SDS011;17386;43.846;25.950;2023-05-10T09:50:24;4.93;;;2.33;;
20629;SDS011;17386;43.846;25.950;2023-05-10T09:53:00;7.85;;;2.35;;
20629;SDS011;17386;43.846;25.950;2023-05-10T09:55:43;13.73;;;2.63;;
20629;SDS011;17386;43.846;25.950;2023-05-10T09:58:11;10.88;;;4.07;;
20629;SDS011;17386;43.846;25.950;2023-05-10T10:00:38;7.25;;;2.88;;
20629;SDS011;17386;43.846;25.950;2023-05-10T10:03:05;5.68;;;2.38;;
20629;SDS011;17386;43.846;25.950;2023-05-10T10:05:32;5.97;;;2.70;;
20629;SDS011;17386;43.846;25.950;2023-05-10T10:07:59;8.32;;;3.10;;
20629;SDS011;17386;43.846;25.950;2023-05-10T10:10:27;5.20;;;2.60;;
20629;SDS011;17386;43.846;25.950;2023-05-10T10:12:53;7.38;;;3.10;;
20629;SDS011;17386;43.846;25.950;2023-05-10T10:15:23;8.35;;;3.30;;
20629;SDS011;17386;43.846;25.950;2023-05-10T10:17:49;4.28;;;2.70;;
20629;SDS011;17386;43.846;25.950;2023-05-10T10:20:16;7.15;;;2.80;;
20629;SDS011;17386;43.846;25.950;2023-05-10T10:22:42;6.45;;;2.80;;
20629;SDS011;17386;43.846;25.950;2023-05-10T10:25:16;11.73;;;2.53;;
20629;SDS011;17386;43.846;25.950;2023-05-10T10:35:49;8.43;;;2.38;;
20629;SDS011;17386;43.846;25.950;2023-05-10T10:38:15;7.07;;;3.00;;
20629;SDS011;17386;43.846;25.950;2023-05-10T10:40:42;5.57;;;2.00;;
20629;SDS011;17386;43.846;25.950;2023-05-10T10:46:12;6.18;;;2.10;;
20629;SDS011;17386;43.846;25.950;2023-05-10T10:48:49;6.10;;;2.10;;
20629;SDS011;17386;43.846;25.950;2023-05-10T10:51:38;5.57;;;2.20;;
20629;SDS011;17386;43.846;25.950;2023-05-10T10:54:10;6.40;;;2.38;;
20629;SDS011;17386;43.846;25.950;2023-05-10T10:56:36;3.17;;;2.20;;
20629;SDS011;17386;43.846;25.950;2023-05-10T10:59:02;5.97;;;2.90;;
20629;SDS011;17386;43.846;25.950;2023-05-10T11:01:32;7.90;;;2.20;;
20629;SDS011;17386;43.846;25.950;2023-05-10T11:06:31;4.30;;;2.47;;
20629;SDS011;17386;43.846;25.950;2023-05-10T11:08:58;5.55;;;1.95;;
20629;SDS011;17386;43.846;25.950;2023-05-10T11:11:24;4.32;;;1.70;;
20629;SDS011;17386;43.846;25.950;2023-05-10T11:13:50;4.55;;;1.83;;
20629;SDS011;17386;43.846;25.950;2023-05-10T11:16:20;5.85;;;2.70;;
20629;SDS011;17386;43.846;25.950;2023-05-10T11:21:32;5.68;;;2.22;;
20629;SDS011;17386;43.846;25.950;2023-05-10T11:24:00;8.07;;;2.22;;
20629;SDS011;17386;43.846;25.950;2023-05-10T11:26:31;4.90;;;2.03;;
20629;SDS011;17386;43.846;25.950;2023-05-10T11:28:58;7.38;;;2.20;;
20629;SDS011;17386;43.846;25.950;2023-05-10T11:31:25;6.47;;;2.40;;
20629;SDS011;17386;43.846;25.950;2023-05-10T11:33:55;9.48;;;2.47;;
20629;SDS011;17386;43.846;25.950;2023-05-10T11:36:26;11.73;;;2.70;;
20629;SDS011;17386;43.846;25.950;2023-05-10T11:38:53;5.85;;;2.25;;
20629;SDS011;17386;43.846;25.950;2023-05-10T11:41:19;6.22;;;1.90;;
20629;SDS011;17386;43.846;25.950;2023-05-10T11:43:52;9.27;;;2.33;;
20629;SDS011;17386;43.846;25.950;2023-05-10T11:46:20;6.78;;;2.00;;
20629;SDS011;17386;43.846;25.950;2023-05-10T11:48:52;5.82;;;2.53;;
20629;SDS011;17386;43.846;25.950;2023-05-10T11:51:24;4.03;;;1.80;;
20629;SDS011;17386;43.846;25.950;2023-05-10T11:53:52;4.45;;;1.98;;
20629;SDS011;17386;43.846;25.950;2023-05-10T11:56:18;6.38;;;2.17;;
20629;SDS011;17386;43.846;25.950;2023-05-10T11:58:52;3.28;;;1.58;;
20629;SDS011;17386;43.846;25.950;2023-05-10T12:01:18;4.88;;;1.88;;
20629;SDS011;17386;43.846;25.950;2023-05-10T12:03:44;11.05;;;2.25;;
20629;SDS011;17386;43.846;25.950;2023-05-10T12:06:09;5.18;;;2.20;;
20629;SDS011;17386;43.846;25.950;2023-05-10T12:08:35;2.90;;;1.88;;
20629;SDS011;17386;43.846;25.950;2023-05-10T12:11:04;5.93;;;1.80;;
20629;SDS011;17386;43.846;25.950;2023-05-10T12:13:38;3.03;;;1.80;;
20629;SDS011;17386;43.846;25.950;2023-05-10T12:16:21;3.78;;;1.83;;
20629;SDS011;17386;43.846;25.950;2023-05-10T12:18:48;9.52;;;8.27;;
20629;SDS011;17386;43.846;25.950;2023-05-10T12:21:16;3.28;;;2.83;;
20629;SDS011;17386;43.846;25.950;2023-05-10T12:23:41;2.63;;;1.88;;
20629;SDS011;17386;43.846;25.950;2023-05-10T12:26:10;3.22;;;1.98;;
20629;SDS011;17386;43.846;25.950;2023-05-10T12:28:35;3.08;;;2.20;;
20629;SDS011;17386;43.846;25.950;2023-05-10T12:31:02;3.15;;;2.10;;
20629;SDS011;17386;43.846;25.950;2023-05-10T12:33:35;5.90;;;2.50;;
20629;SDS011;17386;43.846;25.950;2023-05-10T12:36:08;5.88;;;2.05;;
20629;SDS011;17386;43.846;25.950;2023-05-10T12:41:03;5.95;;;2.13;;
20629;SDS011;17386;43.846;25.950;2023-05-10T12:43:32;4.82;;;2.33;;
20629;SDS011;17386;43.846;25.950;2023-05-10T12:45:58;5.07;;;2.13;;
20629;SDS011;17386;43.846;25.950;2023-05-10T12:48:24;4.47;;;1.83;;
20629;SDS011;17386;43.846;25.950;2023-05-10T12:50:49;4.90;;;2.03;;
20629;SDS011;17386;43.846;25.950;2023-05-10T12:53:15;3.45;;;1.90;;
20629;SDS011;17386;43.846;25.950;2023-05-10T12:55:42;3.15;;;1.92;;
20629;SDS011;17386;43.846;25.950;2023-05-10T12:58:08;7.38;;;2.00;;
20629;SDS011;17386;43.846;25.950;2023-05-10T13:00:33;4.65;;;1.83;;
20629;SDS011;17386;43.846;25.950;2023-05-10T13:02:59;7.32;;;1.83;;
20629;SDS011;17386;43.846;25.950;2023-05-10T13:05:24;4.72;;;2.05;;
20629;SDS011;17386;43.846;25.950;2023-05-10T13:07:50;7.00;;;2.40;;
20629;SDS011;17386;43.846;25.950;2023-05-10T13:10:15;7.60;;;2.65;;
20629;SDS011;17386;43.846;25.950;2023-05-10T13:12:41;7.03;;;2.30;;
20629;SDS011;17386;43.846;25.950;2023-05-10T13:15:07;7.13;;;2.50;;
20629;SDS011;17386;43.846;25.950;2023-05-10T13:17:32;9.55;;;2.58;;
20629;SDS011;17386;43.846;25.950;2023-05-10T13:19:58;5.93;;;1.90;;
20629;SDS011;17386;43.846;25.950;2023-05-10T13:22:23;10.30;;;2.88;;
20629;SDS011;17386;43.846;25.950;2023-05-10T13:24:49;6.93;;;2.50;;
20629;SDS011;17386;43.846;25.950;2023-05-10T13:27:14;9.30;;;3.10;;
20629;SDS011;17386;43.846;25.950;2023-05-10T13:29:40;6.85;;;2.33;;
20629;SDS011;17386;43.846;25.950;2023-05-10T13:32:05;15.93;;;2.58;;
20629;SDS011;17386;43.846;25.950;2023-05-10T13:34:31;7.57;;;2.97;;
20629;SDS011;17386;43.846;25.950;2023-05-10T13:36:56;6.95;;;2.30;;
20629;SDS011;17386;43.846;25.950;2023-05-10T13:39:22;5.35;;;2.25;;
20629;SDS011;17386;43.846;25.950;2023-05-10T13:41:47;8.27;;;2.55;;
20629;SDS011;17386;43.846;25.950;2023-05-10T13:44:13;7.47;;;2.60;;
20629;SDS011;17386;43.846;25.950;2023-05-10T13:46:40;7.32;;;2.67;;
20629;SDS011;17386;43.846;25.950;2023-05-10T13:49:08;6.70;;;3.05;;
20629;SDS011;17386;43.846;25.950;2023-05-10T13:51:33;6.05;;;2.20;;
20629;SDS011;17386;43.846;25.950;2023-05-10T13:53:59;5.63;;;1.73;;
20629;SDS011;17386;43.846;25.950;2023-05-10T13:56:24;3.83;;;2.13;;
20629;SDS011;17386;43.846;25.950;2023-05-10T13:58:50;7.70;;;2.63;;
20629;SDS011;17386;43.846;25.950;2023-05-10T14:01:16;4.28;;;2.25;;
20629;SDS011;17386;43.846;25.950;2023-05-10T14:03:41;6.95;;;2.50;;
20629;SDS011;17386;43.846;25.950;2023-05-10T14:06:07;17.40;;;4.40;;
20629;SDS011;17386;43.846;25.950;2023-05-10T14:08:33;7.13;;;3.55;;
20629;SDS011;17386;43.846;25.950;2023-05-10T14:11:00;8.98;;;3.22;;
20629;SDS011;17386;43.846;25.950;2023-05-10T14:13:25;5.90;;;2.67;;
20629;SDS011;17386;43.846;25.950;2023-05-10T14:15:52;13.70;;;2.80;;
20629;SDS011;17386;43.846;25.950;2023-05-10T14:18:17;13.73;;;3.30;;
20629;SDS011;17386;43.846;25.950;2023-05-10T14:20:43;9.18;;;3.25;;
20629;SDS011;17386;43.846;25.950;2023-05-10T14:23:08;7.63;;;2.70;;
20629;SDS011;17386;43.846;25.950;2023-05-10T14:25:33;7.25;;;2.30;;
20629;SDS011;17386;43.846;25.950;2023-05-10T14:27:59;6.20;;;2.80;;
20629;SDS011;17386;43.846;25.950;2023-05-10T14:30:25;4.43;;;2.40;;
20629;SDS011;17386;43.846;25.950;2023-05-10T14:32:50;4.95;;;2.63;;
20629;SDS011;17386;43.846;25.950;2023-05-10T14:35:16;5.22;;;2.20;;
20629;SDS011;17386;43.846;25.950;2023-05-10T14:37:41;6.95;;;2.15;;
20629;SDS011;17386;43.846;25.950;2023-05-10T14:40:07;8.18;;;1.90;;
20629;SDS011;17386;43.846;25.950;2023-05-10T14:42:34;7.88;;;2.03;;
20629;SDS011;17386;43.846;25.950;2023-05-10T14:44:59;7.70;;;2.40;;
20629;SDS011;17386;43.846;25.950;2023-05-10T14:47:25;4.05;;;2.25;;
20629;SDS011;17386;43.846;25.950;2023-05-10T14:49:50;7.63;;;2.38;;
20629;SDS011;17386;43.846;25.950;2023-05-10T14:52:16;4.40;;;1.92;;
20629;SDS011;17386;43.846;25.950;2023-05-10T14:54:42;3.47;;;2.13;;
20629;SDS011;17386;43.846;25.950;2023-05-10T14:57:07;6.15;;;3.03;;
20629;SDS011;17386;43.846;25.950;2023-05-10T14:59:33;3.95;;;2.35;;
20629;SDS011;17386;43.846;25.950;2023-05-10T15:01:58;3.50;;;1.67;;
20629;SDS011;17386;43.846;25.950;2023-05-10T15:04:24;6.43;;;2.08;;